EIME 200000Z 20009KT 9999 FEW030 BKN190 BKN200 11/08 Q1015 EIME 192300Z 19012KT CAVOK 11/08 Q1015 EIME 192200Z 20013KT 9999 BKN180 12/08 Q1016 EIME 192100Z 20014KT 9999 FEW030 SCT170 BKN180 12/07 Q1016 EIME 192000Z 20016KT 9999 FEW030 BKN240 13/07 Q1015 EIME 191900Z 20015KT 9999 FEW028 BKN250 14/07 Q1015 EIME 191800Z 21018KT 9999 FEW033 BKN250 15/07 Q1015 EIME 191700Z 21016KT 9999 FEW036 BKN250 16/07 Q1015 EIME 191600Z 21017KT 9999 FEW040 17/08 Q1015 EIME 191530Z 20018KT 9999 FEW040 17/08 Q1015 EIME 191500Z 20017KT 9999 SCT042 16/07 Q1015 EIME 191430Z 22018KT 9999 FEW038 SCT048 17/07 Q1015 EIME 191400Z 20017KT 9999 FEW038 BKN045 17/07 Q1015 EIME 191330Z 20016KT 9999 FEW035 BKN045 17/07 Q1015 EIME 191300Z 21014KT 9999 FEW035 SCT050 17/07 Q1015 EIME 191230Z 20017KT 9999 SCT035 BKN250 16/08 Q1015 EIME 191200Z 20020KT 9999 FEW031 BKN250 16/07 Q1015 EIME 191130Z 21017KT 9999 FEW031 BKN250 16/08 Q1015 EIME 191100Z 21015KT 9999 SCT030 SCT250 15/08 Q1015 EIME 191030Z 20015KT 9999 FEW028 SCT250 15/07 Q1015 EIME 191000Z 21018KT 9999 SCT028 15/07 Q1015 EIME 190930Z VRB18KT 9999 FEW025 14/07 Q1015 EIME 190900Z VRB17KT 9999 FEW020 14/08 Q1015 EIME 190830Z VRB20KT 9999 FEW020 13/07 Q1015 EIME 190800Z VRB15KT 9999 FEW020 12/07 Q1015 EIME 190730Z VRB17KT 9999 FEW025 12/07 Q1015 EIME 190700Z 16013KT 9999 FEW025 11/06 Q1015 EIME 190600Z VRB14KT 9999 FEW025 10/06 Q1015 EIME 190500Z VRB11KT 9999 FEW030 09/06 Q1014 EIME 190400Z VRB09KT CAVOK 08/05 Q1014 EIME 190300Z 16010KT CAVOK 08/05 Q1013 EIME 190200Z 18008KT CAVOK 09/06 Q1013 EIME 190100Z 21009KT 9999 FEW019 09/06 Q1012 EIME 190000Z 23013KT 9999 FEW019 10/07 Q1012 EIME 182300Z 22019KT 140V040 9999 FEW018 11/08 Q1011 EIME 182200Z 21020KT 120V010 9999 FEW018 11/08 Q1009 EIME 182100Z VRB16KT 9999 FEW018CB 11/08 Q1009 EIME 182000Z 19017KT 9999 VCSH FEW018CB SCT080 BKN120 12/09 Q1008 EIME 181900Z 18019KT 130V220 9999 -SHRA FEW018CB BKN050 12/10 Q1008 RESHRA EIME 181800Z 17023KT 110V230 9999 -SHRA FEW018CB SCT037 BKN220 15/09 Q1007 EIME 181700Z 17021KT 140V210 9999 FEW033 SCT037 BKN200 16/09 Q1008 EIME 181600Z 17023KT 120V240 9999 FEW033 SCT043 BKN180 16/09 Q1009 EIME 181530Z 17017KT 9999 -SHRA FEW018CB SCT035 BKN060 16/09 Q1009 EIME 181500Z 16020KT 9999 FEW035 SCT043 BKN180 17/09 Q1010 EIME 181430Z 17019G29KT 130V280 9999 FEW036 SCT041 BKN180 17/09 Q1010 EIME 181400Z 17014G30KT 9999 FEW038 SCT047 BKN180 16/08 Q1011 EIME 181330Z 17017G28KT 9999 SCT041 BKN160 16/08 Q1011

METAR Messwerte "CASEMENT (MIL)" EIME

Zurück zur Übersicht

Ortsname
Ländercode / m ü. NN
Zeit Temperatur Taupunkt Rel.
Luftfeuchte
Luftdruck:
Altimeter
NN
Station
Wind in Beaufort
(Knoten)
Sichtweite
(Meter)
Wolken
(Meter über Grund)
Wettererscheinung
CASEMENT (MIL)
IE 90
Fr 20.05. 02:0011882 %1015
1015
1004
SSW 3 (9)>= 10000Stark bewölkt (6100)
Stark bewölkt (5800)
Leicht bewölkt (910)
 
CASEMENT (MIL)
IE 90
Fr 20.05. 01:0011882 %1015
1015
1004
S 4 (12)>= 10000Nicht signifikant 
CASEMENT (MIL)
IE 90
Fr 20.05. 00:0012876 %1016
1016
1005
SSW 4 (13)>= 10000Stark bewölkt (5500) 
CASEMENT (MIL)
IE 90
Do 19.05. 23:0012771 %1016
1016
1005
SSW 4 (14)>= 10000Stark bewölkt (5500)
Wolkig (5200)
Leicht bewölkt (910)
 
CASEMENT (MIL)
IE 90
Do 19.05. 22:0013767 %1015
1015
1004
SSW 5 (16)>= 10000Stark bewölkt (7300)
Leicht bewölkt (910)
 
CASEMENT (MIL)
IE 90
Do 19.05. 21:0014763 %1015
1015
1004
SSW 4 (15)>= 10000Stark bewölkt (7600)
Leicht bewölkt (850)
 
CASEMENT (MIL)
IE 90
Do 19.05. 20:0015759 %1015
1015
1004
SSW 5 (18)>= 10000Stark bewölkt (7600)
Leicht bewölkt (1000)
 
CASEMENT (MIL)
IE 90
Do 19.05. 19:0016755 %1015
1015
1004
SSW 5 (16)>= 10000Stark bewölkt (7600)
Leicht bewölkt (1100)
 
CASEMENT (MIL)
IE 90
Do 19.05. 18:0017855 %1015
1015
1004
SSW 5 (17)>= 10000Leicht bewölkt (1200) 
CASEMENT (MIL)
IE 90
Do 19.05. 17:3017855 %1015
1015
1004
SSW 5 (18)>= 10000Leicht bewölkt (1200) 
CASEMENT (MIL)
IE 90
Do 19.05. 17:0016755 %1015
1015
1004
SSW 5 (17)>= 10000Wolkig (1300) 
CASEMENT (MIL)
IE 90
Do 19.05. 16:3017752 %1015
1015
1004
SW 5 (18)>= 10000Wolkig (1500)
Leicht bewölkt (1200)
 
CASEMENT (MIL)
IE 90
Do 19.05. 16:0017752 %1015
1015
1004
SSW 5 (17)>= 10000Stark bewölkt (1400)
Leicht bewölkt (1200)
 
CASEMENT (MIL)
IE 90
Do 19.05. 15:3017752 %1015
1015
1004
SSW 5 (16)>= 10000Stark bewölkt (1400)
Leicht bewölkt (1100)
 
CASEMENT (MIL)
IE 90
Do 19.05. 15:0017752 %1015
1015
1004
SSW 4 (14)>= 10000Wolkig (1500)
Leicht bewölkt (1100)
 
CASEMENT (MIL)
IE 90
Do 19.05. 14:3016859 %1015
1015
1004
SSW 5 (17)>= 10000Stark bewölkt (7600)
Wolkig (1100)
 
CASEMENT (MIL)
IE 90
Do 19.05. 14:0016755 %1015
1015
1004
SSW 5 (20)>= 10000Stark bewölkt (7600)
Leicht bewölkt (940)
 
CASEMENT (MIL)
IE 90
Do 19.05. 13:3016859 %1015
1015
1004
SSW 5 (17)>= 10000Stark bewölkt (7600)
Leicht bewölkt (940)
 
CASEMENT (MIL)
IE 90
Do 19.05. 13:0015863 %1015
1015
1004
SSW 4 (15)>= 10000Wolkig (7600)
Wolkig (910)
 
CASEMENT (MIL)
IE 90
Do 19.05. 12:3015759 %1015
1015
1004
SSW 4 (15)>= 10000Wolkig (7600)
Leicht bewölkt (850)
 
CASEMENT (MIL)
IE 90
Do 19.05. 12:0015759 %1015
1015
1004
SSW 5 (18)>= 10000Wolkig (850) 
CASEMENT (MIL)
IE 90
Do 19.05. 11:3014763 %1015
1015
1004
Uml 5 (18)>= 10000Leicht bewölkt (760) 
CASEMENT (MIL)
IE 90
Do 19.05. 11:0014867 %1015
1015
1004
Uml 5 (17)>= 10000Leicht bewölkt (610) 
CASEMENT (MIL)
IE 90
Do 19.05. 10:3013767 %1015
1015
1004
Uml 5 (20)>= 10000Leicht bewölkt (610) 
CASEMENT (MIL)
IE 90
Do 19.05. 10:0012771 %1015
1015
1004
Uml 4 (15)>= 10000Leicht bewölkt (610) 
CASEMENT (MIL)
IE 90
Do 19.05. 09:3012771 %1015
1015
1004
Uml 5 (17)>= 10000Leicht bewölkt (760) 
CASEMENT (MIL)
IE 90
Do 19.05. 09:0011671 %1015
1015
1004
SSO 4 (13)>= 10000Leicht bewölkt (760) 
CASEMENT (MIL)
IE 90
Do 19.05. 08:0010676 %1015
1015
1004
Uml 4 (14)>= 10000Leicht bewölkt (760) 
CASEMENT (MIL)
IE 90
Do 19.05. 07:009681 %1014
1014
1003
Uml 4 (11)>= 10000Leicht bewölkt (910) 
CASEMENT (MIL)
IE 90
Do 19.05. 06:008581 %1014
1014
1003
Uml 3 (9)>= 10000Nicht signifikant 
CASEMENT (MIL)
IE 90
Do 19.05. 05:008581 %1013
1013
1002
SSO 3 (10)>= 10000Nicht signifikant 
CASEMENT (MIL)
IE 90
Do 19.05. 04:009681 %1013
1013
1002
S 3 (8)>= 10000Nicht signifikant 
CASEMENT (MIL)
IE 90
Do 19.05. 03:009681 %1012
1012
1001
SSW 3 (9)>= 10000Leicht bewölkt (580) 
CASEMENT (MIL)
IE 90
Do 19.05. 02:0010782 %1012
1012
1001
SW 4 (13)>= 10000Leicht bewölkt (580) 
CASEMENT (MIL)
IE 90
Do 19.05. 01:0011882 %1011
1011
1000
SW 5 (19)
SO - NO
>= 10000Leicht bewölkt (550) 
CASEMENT (MIL)
IE 90
Do 19.05. 00:0011882 %1009
1009
998
SSW 5 (20)
OSO - N
>= 10000Leicht bewölkt (550) 
CASEMENT (MIL)
IE 90
Mi 18.05. 23:0011882 %1009
1009
998
Uml 5 (16)>= 10000Leicht bewölkt Cb (550) 
CASEMENT (MIL)
IE 90
Mi 18.05. 22:0012982 %1008
1008
997
S 5 (17)>= 10000Stark bewölkt (3700)
Wolkig (2400)
Leicht bewölkt Cb (550)
 
CASEMENT (MIL)
IE 90
Mi 18.05. 21:00121088 %1008
1008
997
S 5 (19)
SO - SW
>= 10000Stark bewölkt (1500)
Leicht bewölkt Cb (550)
Regen-Schauer (schwach)
CASEMENT (MIL)
IE 90
Mi 18.05. 20:0015967 %1007
1007
996
S 6 (23)
OSO - SW
>= 10000Stark bewölkt (6700)
Wolkig (1100)
Leicht bewölkt Cb (550)
Regen-Schauer (schwach)
CASEMENT (MIL)
IE 90
Mi 18.05. 19:0016963 %1008
1008
997
S 6 (21)
SO - SSW
>= 10000Stark bewölkt (6100)
Wolkig (1100)
Leicht bewölkt (1000)
 
CASEMENT (MIL)
IE 90
Mi 18.05. 18:0016963 %1009
1009
998
S 6 (23)
OSO - WSW
>= 10000Stark bewölkt (5500)
Wolkig (1300)
Leicht bewölkt (1000)
 
CASEMENT (MIL)
IE 90
Mi 18.05. 17:3016963 %1009
1009
998
S 5 (17)>= 10000Stark bewölkt (1800)
Wolkig (1100)
Leicht bewölkt Cb (550)
Regen-Schauer (schwach)
CASEMENT (MIL)
IE 90
Mi 18.05. 17:0017959 %1010
1010
999
SSO 5 (20)>= 10000Stark bewölkt (5500)
Wolkig (1300)
Leicht bewölkt (1100)
 
CASEMENT (MIL)
IE 90
Mi 18.05. 16:3017959 %1010
1010
999
S 5 (19) - 7 (29)
SO - W
>= 10000Stark bewölkt (5500)
Wolkig (1200)
Leicht bewölkt (1100)
 
CASEMENT (MIL)
IE 90
Mi 18.05. 16:0016859 %1011
1011
1000
S 4 (14) - 7 (30)>= 10000Stark bewölkt (5500)
Wolkig (1400)
Leicht bewölkt (1200)
 
CASEMENT (MIL)
IE 90
Mi 18.05. 15:3016859 %1011
1011
1000
S 5 (17) - 7 (28)>= 10000Stark bewölkt (4900)
Wolkig (1200)
 

Altimeter: Einstellung am Altimeter (Höhenmesser), die Höhe 0 muss auf diesen Luftdruckwert zeigen, damit das Gerät die Stationshöhe richtig anzeigt.

NN: Luftdruck reduziert auf "Normal Null", auf Meereshöhe, dieser von der Temperatur abhängige Wert wird bisweilen unkorrekt einfach als "Luftdruck" bezeichnet. Eigentlich nur eine fiktive Größe, die es erlaubt, Stationen auf unterschiedlichen Höhen miteinander zu vergleichen.

Station: Realer Luftdruck an der Station.